sensor_id;sensor_type;location;lat;lon;timestamp;P1;durP1;ratioP1;P2;durP2;ratioP2
9392;SDS011;4736;52.508;13.422;2023-09-07T00:02:51;7.57;;;7.00;;
9392;SDS011;4736;52.508;13.422;2023-09-07T00:05:54;6.80;;;6.40;;
9392;SDS011;4736;52.508;13.422;2023-09-07T00:08:57;6.43;;;6.13;;
9392;SDS011;4736;52.508;13.422;2023-09-07T00:12:00;6.87;;;6.33;;
9392;SDS011;4736;52.508;13.422;2023-09-07T00:15:05;6.73;;;6.27;;
9392;SDS011;4736;52.508;13.422;2023-09-07T00:18:09;6.50;;;6.10;;
9392;SDS011;4736;52.508;13.422;2023-09-07T00:21:13;7.33;;;6.80;;
9392;SDS011;4736;52.508;13.422;2023-09-07T00:24:16;6.30;;;6.00;;
9392;SDS011;4736;52.508;13.422;2023-09-07T00:27:19;6.83;;;6.53;;
9392;SDS011;4736;52.508;13.422;2023-09-07T00:30:24;7.00;;;6.70;;
9392;SDS011;4736;52.508;13.422;2023-09-07T00:33:28;7.17;;;6.77;;
9392;SDS011;4736;52.508;13.422;2023-09-07T00:36:31;6.80;;;6.47;;
9392;SDS011;4736;52.508;13.422;2023-09-07T00:39:36;7.17;;;6.77;;
9392;SDS011;4736;52.508;13.422;2023-09-07T00:42:40;6.83;;;6.33;;
9392;SDS011;4736;52.508;13.422;2023-09-07T00:45:44;7.43;;;6.90;;
9392;SDS011;4736;52.508;13.422;2023-09-07T00:48:48;7.37;;;6.93;;
9392;SDS011;4736;52.508;13.422;2023-09-07T00:51:51;6.90;;;6.50;;
9392;SDS011;4736;52.508;13.422;2023-09-07T00:54:55;7.47;;;6.97;;
9392;SDS011;4736;52.508;13.422;2023-09-07T00:57:58;6.70;;;6.40;;
9392;SDS011;4736;52.508;13.422;2023-09-07T01:01:03;7.33;;;6.83;;
9392;SDS011;4736;52.508;13.422;2023-09-07T01:04:06;6.37;;;6.03;;
9392;SDS011;4736;52.508;13.422;2023-09-07T01:07:11;6.50;;;6.20;;
9392;SDS011;4736;52.508;13.422;2023-09-07T01:10:18;6.60;;;6.30;;
9392;SDS011;4736;52.508;13.422;2023-09-07T01:13:23;6.67;;;6.37;;
9392;SDS011;4736;52.508;13.422;2023-09-07T01:16:28;6.67;;;6.33;;
9392;SDS011;4736;52.508;13.422;2023-09-07T01:19:31;7.83;;;7.33;;
9392;SDS011;4736;52.508;13.422;2023-09-07T01:22:36;6.77;;;6.47;;
9392;SDS011;4736;52.508;13.422;2023-09-07T01:25:40;6.63;;;6.23;;
9392;SDS011;4736;52.508;13.422;2023-09-07T01:28:44;7.30;;;6.73;;
9392;SDS011;4736;52.508;13.422;2023-09-07T01:31:47;6.60;;;6.30;;
9392;SDS011;4736;52.508;13.422;2023-09-07T01:34:50;7.20;;;6.73;;
9392;SDS011;4736;52.508;13.422;2023-09-07T01:37:59;6.97;;;6.60;;
9392;SDS011;4736;52.508;13.422;2023-09-07T01:41:02;7.47;;;6.80;;
9392;SDS011;4736;52.508;13.422;2023-09-07T01:44:05;7.10;;;6.63;;
9392;SDS011;4736;52.508;13.422;2023-09-07T01:47:08;7.53;;;7.13;;
9392;SDS011;4736;52.508;13.422;2023-09-07T01:50:12;6.90;;;6.60;;
9392;SDS011;4736;52.508;13.422;2023-09-07T01:53:16;8.77;;;8.10;;
9392;SDS011;4736;52.508;13.422;2023-09-07T01:56:20;7.20;;;6.80;;
9392;SDS011;4736;52.508;13.422;2023-09-07T01:59:23;7.83;;;7.33;;
9392;SDS011;4736;52.508;13.422;2023-09-07T02:02:26;8.33;;;7.60;;
9392;SDS011;4736;52.508;13.422;2023-09-07T02:05:29;7.93;;;7.43;;
9392;SDS011;4736;52.508;13.422;2023-09-07T02:08:35;7.53;;;7.03;;
9392;SDS011;4736;52.508;13.422;2023-09-07T02:11:38;8.27;;;7.57;;
9392;SDS011;4736;52.508;13.422;2023-09-07T02:14:42;7.57;;;7.17;;
9392;SDS011;4736;52.508;13.422;2023-09-07T02:17:45;7.93;;;7.40;;
9392;SDS011;4736;52.508;13.422;2023-09-07T02:20:48;8.67;;;7.80;;
9392;SDS011;4736;52.508;13.422;2023-09-07T02:23:52;7.40;;;6.70;;
9392;SDS011;4736;52.508;13.422;2023-09-07T02:26:56;8.00;;;7.53;;
9392;SDS011;4736;52.508;13.422;2023-09-07T02:29:59;8.60;;;7.93;;
9392;SDS011;4736;52.508;13.422;2023-09-07T02:33:03;8.57;;;7.97;;
9392;SDS011;4736;52.508;13.422;2023-09-07T02:36:06;8.30;;;7.70;;
9392;SDS011;4736;52.508;13.422;2023-09-07T02:39:11;7.50;;;6.90;;
9392;SDS011;4736;52.508;13.422;2023-09-07T02:42:15;7.97;;;7.53;;
9392;SDS011;4736;52.508;13.422;2023-09-07T02:45:18;7.50;;;7.10;;
9392;SDS011;4736;52.508;13.422;2023-09-07T02:48:21;9.27;;;8.20;;
9392;SDS011;4736;52.508;13.422;2023-09-07T02:51:24;7.93;;;7.30;;
9392;SDS011;4736;52.508;13.422;2023-09-07T02:54:29;8.73;;;7.90;;
9392;SDS011;4736;52.508;13.422;2023-09-07T02:57:32;7.80;;;7.30;;
9392;SDS011;4736;52.508;13.422;2023-09-07T03:00:40;12.00;;;7.87;;
9392;SDS011;4736;52.508;13.422;2023-09-07T03:03:45;7.60;;;7.10;;
9392;SDS011;4736;52.508;13.422;2023-09-07T03:06:49;8.87;;;8.17;;
9392;SDS011;4736;52.508;13.422;2023-09-07T03:09:53;8.80;;;8.17;;
9392;SDS011;4736;52.508;13.422;2023-09-07T03:12:57;8.60;;;7.97;;
9392;SDS011;4736;52.508;13.422;2023-09-07T03:16:01;8.57;;;8.03;;
9392;SDS011;4736;52.508;13.422;2023-09-07T03:19:05;8.07;;;7.47;;
9392;SDS011;4736;52.508;13.422;2023-09-07T03:22:09;8.20;;;7.70;;
9392;SDS011;4736;52.508;13.422;2023-09-07T03:25:14;6.97;;;6.63;;
9392;SDS011;4736;52.508;13.422;2023-09-07T03:28:17;7.40;;;6.93;;
9392;SDS011;4736;52.508;13.422;2023-09-07T03:31:20;6.60;;;6.10;;
9392;SDS011;4736;52.508;13.422;2023-09-07T03:34:24;7.40;;;6.90;;
9392;SDS011;4736;52.508;13.422;2023-09-07T03:37:27;6.47;;;6.10;;
9392;SDS011;4736;52.508;13.422;2023-09-07T03:40:33;7.30;;;6.90;;
9392;SDS011;4736;52.508;13.422;2023-09-07T03:43:36;6.63;;;6.33;;
9392;SDS011;4736;52.508;13.422;2023-09-07T03:46:39;7.07;;;6.67;;
9392;SDS011;4736;52.508;13.422;2023-09-07T03:49:42;8.10;;;7.70;;
9392;SDS011;4736;52.508;13.422;2023-09-07T03:52:45;7.93;;;7.43;;
9392;SDS011;4736;52.508;13.422;2023-09-07T03:55:50;7.03;;;6.63;;
9392;SDS011;4736;52.508;13.422;2023-09-07T03:58:53;8.10;;;7.57;;
9392;SDS011;4736;52.508;13.422;2023-09-07T04:01:56;7.67;;;7.17;;
9392;SDS011;4736;52.508;13.422;2023-09-07T04:05:00;8.17;;;7.67;;
9392;SDS011;4736;52.508;13.422;2023-09-07T04:08:06;7.93;;;7.40;;
9392;SDS011;4736;52.508;13.422;2023-09-07T04:11:11;8.50;;;7.90;;
9392;SDS011;4736;52.508;13.422;2023-09-07T04:14:14;9.07;;;8.27;;
9392;SDS011;4736;52.508;13.422;2023-09-07T04:17:17;9.07;;;8.53;;
9392;SDS011;4736;52.508;13.422;2023-09-07T04:20:21;8.90;;;8.17;;
9392;SDS011;4736;52.508;13.422;2023-09-07T04:23:25;8.80;;;8.27;;
9392;SDS011;4736;52.508;13.422;2023-09-07T04:26:29;8.60;;;8.03;;
9392;SDS011;4736;52.508;13.422;2023-09-07T04:29:32;10.20;;;9.30;;
9392;SDS011;4736;52.508;13.422;2023-09-07T04:32:35;8.93;;;8.30;;
9392;SDS011;4736;52.508;13.422;2023-09-07T04:35:39;10.97;;;9.07;;
9392;SDS011;4736;52.508;13.422;2023-09-07T04:38:42;9.60;;;8.93;;
9392;SDS011;4736;52.508;13.422;2023-09-07T04:41:46;9.37;;;8.67;;
9392;SDS011;4736;52.508;13.422;2023-09-07T04:44:52;9.70;;;8.67;;
9392;SDS011;4736;52.508;13.422;2023-09-07T04:47:55;9.00;;;8.40;;
9392;SDS011;4736;52.508;13.422;2023-09-07T04:50:58;9.70;;;9.00;;
9392;SDS011;4736;52.508;13.422;2023-09-07T04:54:01;9.73;;;8.90;;
9392;SDS011;4736;52.508;13.422;2023-09-07T04:57:06;9.73;;;8.93;;
9392;SDS011;4736;52.508;13.422;2023-09-07T05:00:10;10.67;;;9.57;;
9392;SDS011;4736;52.508;13.422;2023-09-07T05:03:14;10.87;;;9.27;;
9392;SDS011;4736;52.508;13.422;2023-09-07T05:06:17;8.60;;;8.00;;
9392;SDS011;4736;52.508;13.422;2023-09-07T05:09:20;9.90;;;9.20;;
9392;SDS011;4736;52.508;13.422;2023-09-07T05:12:26;9.77;;;8.90;;
9392;SDS011;4736;52.508;13.422;2023-09-07T05:15:29;9.70;;;9.00;;
9392;SDS011;4736;52.508;13.422;2023-09-07T05:18:32;9.43;;;8.70;;
9392;SDS011;4736;52.508;13.422;2023-09-07T05:21:36;8.77;;;8.17;;
9392;SDS011;4736;52.508;13.422;2023-09-07T05:24:39;9.07;;;8.37;;
9392;SDS011;4736;52.508;13.422;2023-09-07T05:27:43;11.13;;;8.37;;
9392;SDS011;4736;52.508;13.422;2023-09-07T05:30:47;9.57;;;8.83;;
9392;SDS011;4736;52.508;13.422;2023-09-07T05:33:51;10.87;;;8.87;;
9392;SDS011;4736;52.508;13.422;2023-09-07T05:36:54;8.77;;;8.00;;
9392;SDS011;4736;52.508;13.422;2023-09-07T05:39:57;9.83;;;8.97;;
9392;SDS011;4736;52.508;13.422;2023-09-07T05:43:01;10.43;;;9.57;;
9392;SDS011;4736;52.508;13.422;2023-09-07T05:46:05;9.17;;;8.37;;
9392;SDS011;4736;52.508;13.422;2023-09-07T05:49:08;9.90;;;8.97;;
9392;SDS011;4736;52.508;13.422;2023-09-07T05:52:11;9.57;;;8.87;;
9392;SDS011;4736;52.508;13.422;2023-09-07T05:55:14;7.87;;;7.23;;
9392;SDS011;4736;52.508;13.422;2023-09-07T05:58:19;8.03;;;7.47;;
9392;SDS011;4736;52.508;13.422;2023-09-07T06:01:22;9.07;;;8.47;;
9392;SDS011;4736;52.508;13.422;2023-09-07T06:04:26;7.97;;;7.37;;
9392;SDS011;4736;52.508;13.422;2023-09-07T06:07:29;9.30;;;8.67;;
9392;SDS011;4736;52.508;13.422;2023-09-07T06:10:32;12.50;;;8.30;;
9392;SDS011;4736;52.508;13.422;2023-09-07T06:13:37;9.63;;;8.80;;
9392;SDS011;4736;52.508;13.422;2023-09-07T06:16:40;9.77;;;8.40;;
9392;SDS011;4736;52.508;13.422;2023-09-07T06:19:43;10.00;;;9.10;;
9392;SDS011;4736;52.508;13.422;2023-09-07T06:22:47;8.93;;;8.23;;
9392;SDS011;4736;52.508;13.422;2023-09-07T06:25:51;8.70;;;8.00;;
9392;SDS011;4736;52.508;13.422;2023-09-07T06:28:56;7.93;;;7.30;;
9392;SDS011;4736;52.508;13.422;2023-09-07T06:31:59;8.40;;;7.60;;
9392;SDS011;4736;52.508;13.422;2023-09-07T06:35:02;11.20;;;9.07;;
9392;SDS011;4736;52.508;13.422;2023-09-07T06:38:06;8.20;;;7.30;;
9392;SDS011;4736;52.508;13.422;2023-09-07T06:41:09;8.20;;;7.53;;
9392;SDS011;4736;52.508;13.422;2023-09-07T06:44:14;9.23;;;8.47;;
9392;SDS011;4736;52.508;13.422;2023-09-07T06:47:17;8.20;;;7.37;;
9392;SDS011;4736;52.508;13.422;2023-09-07T06:50:21;7.53;;;6.90;;
9392;SDS011;4736;52.508;13.422;2023-09-07T06:53:24;7.90;;;7.20;;
9392;SDS011;4736;52.508;13.422;2023-09-07T06:56:45;7.73;;;7.23;;
9392;SDS011;4736;52.508;13.422;2023-09-07T06:59:50;10.37;;;7.93;;
9392;SDS011;4736;52.508;13.422;2023-09-07T07:02:53;9.67;;;8.73;;
9392;SDS011;4736;52.508;13.422;2023-09-07T07:05:59;8.43;;;7.67;;
9392;SDS011;4736;52.508;13.422;2023-09-07T07:09:03;9.13;;;8.33;;
9392;SDS011;4736;52.508;13.422;2023-09-07T07:12:06;7.00;;;6.53;;
9392;SDS011;4736;52.508;13.422;2023-09-07T07:15:11;7.80;;;6.93;;
9392;SDS011;4736;52.508;13.422;2023-09-07T07:18:14;7.90;;;7.20;;
9392;SDS011;4736;52.508;13.422;2023-09-07T07:21:17;9.77;;;7.10;;
9392;SDS011;4736;52.508;13.422;2023-09-07T07:24:21;8.67;;;7.97;;
9392;SDS011;4736;52.508;13.422;2023-09-07T07:27:24;7.80;;;7.10;;
9392;SDS011;4736;52.508;13.422;2023-09-07T07:30:29;8.90;;;7.20;;
9392;SDS011;4736;52.508;13.422;2023-09-07T07:33:32;7.20;;;6.60;;
9392;SDS011;4736;52.508;13.422;2023-09-07T07:36:36;12.80;;;7.27;;
9392;SDS011;4736;52.508;13.422;2023-09-07T07:39:39;7.60;;;7.00;;
9392;SDS011;4736;52.508;13.422;2023-09-07T07:42:42;8.73;;;7.23;;
9392;SDS011;4736;52.508;13.422;2023-09-07T07:45:47;8.90;;;7.93;;
9392;SDS011;4736;52.508;13.422;2023-09-07T07:48:50;9.17;;;8.37;;
9392;SDS011;4736;52.508;13.422;2023-09-07T07:51:53;7.97;;;7.33;;
9392;SDS011;4736;52.508;13.422;2023-09-07T07:54:58;7.27;;;6.70;;
9392;SDS011;4736;52.508;13.422;2023-09-07T07:58:02;7.40;;;6.77;;
9392;SDS011;4736;52.508;13.422;2023-09-07T08:01:14;6.67;;;6.27;;
9392;SDS011;4736;52.508;13.422;2023-09-07T08:04:18;7.60;;;6.90;;
9392;SDS011;4736;52.508;13.422;2023-09-07T08:07:21;7.97;;;7.30;;
9392;SDS011;4736;52.508;13.422;2023-09-07T08:10:24;8.03;;;7.27;;
9392;SDS011;4736;52.508;13.422;2023-09-07T08:13:32;9.07;;;7.80;;
9392;SDS011;4736;52.508;13.422;2023-09-07T08:16:37;9.70;;;8.10;;
9392;SDS011;4736;52.508;13.422;2023-09-07T08:19:40;8.77;;;7.80;;
9392;SDS011;4736;52.508;13.422;2023-09-07T08:22:45;7.43;;;6.70;;
9392;SDS011;4736;52.508;13.422;2023-09-07T08:25:48;7.87;;;6.93;;
9392;SDS011;4736;52.508;13.422;2023-09-07T08:28:53;7.07;;;6.57;;
9392;SDS011;4736;52.508;13.422;2023-09-07T08:31:58;7.97;;;7.17;;
9392;SDS011;4736;52.508;13.422;2023-09-07T08:35:03;11.93;;;7.60;;
9392;SDS011;4736;52.508;13.422;2023-09-07T08:38:09;7.47;;;6.87;;
9392;SDS011;4736;52.508;13.422;2023-09-07T08:41:12;7.07;;;6.53;;
9392;SDS011;4736;52.508;13.422;2023-09-07T08:44:17;9.20;;;7.40;;
9392;SDS011;4736;52.508;13.422;2023-09-07T08:47:22;8.27;;;7.30;;
9392;SDS011;4736;52.508;13.422;2023-09-07T08:50:25;10.50;;;7.03;;
9392;SDS011;4736;52.508;13.422;2023-09-07T08:53:31;6.90;;;6.00;;
9392;SDS011;4736;52.508;13.422;2023-09-07T08:56:35;6.93;;;6.33;;
9392;SDS011;4736;52.508;13.422;2023-09-07T08:59:39;6.90;;;6.00;;
9392;SDS011;4736;52.508;13.422;2023-09-07T09:02:44;8.00;;;6.43;;
9392;SDS011;4736;52.508;13.422;2023-09-07T09:05:52;7.40;;;6.30;;
9392;SDS011;4736;52.508;13.422;2023-09-07T09:08:57;7.10;;;6.50;;
9392;SDS011;4736;52.508;13.422;2023-09-07T09:12:06;8.17;;;5.97;;
9392;SDS011;4736;52.508;13.422;2023-09-07T09:15:10;7.67;;;6.70;;
9392;SDS011;4736;52.508;13.422;2023-09-07T09:18:15;7.10;;;6.40;;
9392;SDS011;4736;52.508;13.422;2023-09-07T09:21:18;6.67;;;6.07;;
9392;SDS011;4736;52.508;13.422;2023-09-07T09:24:22;6.50;;;6.10;;
9392;SDS011;4736;52.508;13.422;2023-09-07T09:27:25;9.20;;;6.23;;
9392;SDS011;4736;52.508;13.422;2023-09-07T09:30:29;7.23;;;6.70;;
9392;SDS011;4736;52.508;13.422;2023-09-07T09:33:34;6.83;;;6.13;;
9392;SDS011;4736;52.508;13.422;2023-09-07T09:36:40;9.83;;;6.73;;
9392;SDS011;4736;52.508;13.422;2023-09-07T09:39:44;6.70;;;6.13;;
9392;SDS011;4736;52.508;13.422;2023-09-07T09:42:52;6.70;;;6.13;;
9392;SDS011;4736;52.508;13.422;2023-09-07T09:45:58;6.63;;;6.13;;
9392;SDS011;4736;52.508;13.422;2023-09-07T09:49:04;12.33;;;7.03;;
9392;SDS011;4736;52.508;13.422;2023-09-07T09:52:12;14.10;;;7.07;;
9392;SDS011;4736;52.508;13.422;2023-09-07T09:55:16;11.23;;;6.27;;
9392;SDS011;4736;52.508;13.422;2023-09-07T09:58:20;7.77;;;6.87;;
9392;SDS011;4736;52.508;13.422;2023-09-07T10:01:26;8.53;;;6.17;;
9392;SDS011;4736;52.508;13.422;2023-09-07T10:04:36;6.70;;;6.20;;
9392;SDS011;4736;52.508;13.422;2023-09-07T10:07:43;7.23;;;6.57;;
9392;SDS011;4736;52.508;13.422;2023-09-07T10:10:48;8.53;;;6.40;;
9392;SDS011;4736;52.508;13.422;2023-09-07T10:13:58;12.73;;;6.70;;
9392;SDS011;4736;52.508;13.422;2023-09-07T10:17:02;22.27;;;8.20;;
9392;SDS011;4736;52.508;13.422;2023-09-07T10:20:08;6.97;;;5.97;;
9392;SDS011;4736;52.508;13.422;2023-09-07T10:23:15;6.97;;;6.27;;
9392;SDS011;4736;52.508;13.422;2023-09-07T10:26:29;6.17;;;5.67;;
9392;SDS011;4736;52.508;13.422;2023-09-07T10:29:40;6.63;;;6.03;;
9392;SDS011;4736;52.508;13.422;2023-09-07T10:32:45;5.40;;;5.10;;
9392;SDS011;4736;52.508;13.422;2023-09-07T10:35:50;6.27;;;5.70;;
9392;SDS011;4736;52.508;13.422;2023-09-07T10:39:10;5.77;;;5.47;;
9392;SDS011;4736;52.508;13.422;2023-09-07T10:42:20;6.33;;;5.73;;
9392;SDS011;4736;52.508;13.422;2023-09-07T10:45:38;6.37;;;5.87;;
9392;SDS011;4736;52.508;13.422;2023-09-07T10:48:43;6.00;;;5.60;;
9392;SDS011;4736;52.508;13.422;2023-09-07T10:51:48;6.83;;;6.20;;
9392;SDS011;4736;52.508;13.422;2023-09-07T10:54:57;5.93;;;5.63;;
9392;SDS011;4736;52.508;13.422;2023-09-07T10:58:01;5.90;;;5.37;;
9392;SDS011;4736;52.508;13.422;2023-09-07T11:01:04;7.30;;;5.87;;
9392;SDS011;4736;52.508;13.422;2023-09-07T11:04:08;5.53;;;5.23;;
9392;SDS011;4736;52.508;13.422;2023-09-07T11:07:14;8.40;;;5.17;;
9392;SDS011;4736;52.508;13.422;2023-09-07T11:10:24;5.67;;;5.23;;
9392;SDS011;4736;52.508;13.422;2023-09-07T11:13:27;5.53;;;5.13;;
9392;SDS011;4736;52.508;13.422;2023-09-07T11:16:30;5.32;;;5.03;;
9392;SDS011;4736;52.508;13.422;2023-09-07T11:19:35;5.50;;;4.40;;
9392;SDS011;4736;52.508;13.422;2023-09-07T11:22:41;5.05;;;4.75;;
9392;SDS011;4736;52.508;13.422;2023-09-07T11:26:04;5.57;;;4.90;;
9392;SDS011;4736;52.508;13.422;2023-09-07T11:29:07;4.67;;;4.40;;
9392;SDS011;4736;52.508;13.422;2023-09-07T11:32:13;5.10;;;4.68;;
9392;SDS011;4736;52.508;13.422;2023-09-07T11:35:23;4.60;;;4.28;;
9392;SDS011;4736;52.508;13.422;2023-09-07T11:38:29;4.60;;;4.30;;
9392;SDS011;4736;52.508;13.422;2023-09-07T11:41:38;4.55;;;4.28;;
9392;SDS011;4736;52.508;13.422;2023-09-07T11:44:42;4.53;;;4.40;;
9392;SDS011;4736;52.508;13.422;2023-09-07T11:47:45;4.90;;;4.45;;
9392;SDS011;4736;52.508;13.422;2023-09-07T11:50:48;3.70;;;3.60;;
9392;SDS011;4736;52.508;13.422;2023-09-07T11:53:53;5.30;;;5.10;;
9392;SDS011;4736;52.508;13.422;2023-09-07T11:56:56;5.30;;;4.82;;
9392;SDS011;4736;52.508;13.422;2023-09-07T12:00:00;5.10;;;4.70;;
9392;SDS011;4736;52.508;13.422;2023-09-07T12:03:03;4.88;;;4.68;;
9392;SDS011;4736;52.508;13.422;2023-09-07T12:06:07;5.40;;;5.10;;
9392;SDS011;4736;52.508;13.422;2023-09-07T12:09:11;4.68;;;4.20;;
9392;SDS011;4736;52.508;13.422;2023-09-07T12:12:16;4.80;;;4.50;;
9392;SDS011;4736;52.508;13.422;2023-09-07T12:15:19;4.85;;;4.65;;
9392;SDS011;4736;52.508;13.422;2023-09-07T12:18:22;5.28;;;4.97;;
9392;SDS011;4736;52.508;13.422;2023-09-07T12:21:26;5.18;;;4.82;;
9392;SDS011;4736;52.508;13.422;2023-09-07T12:24:30;6.00;;;4.60;;
9392;SDS011;4736;52.508;13.422;2023-09-07T12:27:34;4.97;;;4.40;;
9392;SDS011;4736;52.508;13.422;2023-09-07T12:30:53;5.00;;;4.55;;
9392;SDS011;4736;52.508;13.422;2023-09-07T12:33:56;4.70;;;4.45;;
9392;SDS011;4736;52.508;13.422;2023-09-07T12:36:59;5.07;;;4.78;;
9392;SDS011;4736;52.508;13.422;2023-09-07T12:40:07;3.95;;;3.85;;
9392;SDS011;4736;52.508;13.422;2023-09-07T12:43:14;5.00;;;4.80;;
9392;SDS011;4736;52.508;13.422;2023-09-07T12:46:17;6.32;;;4.88;;
9392;SDS011;4736;52.508;13.422;2023-09-07T12:49:20;7.82;;;4.93;;
9392;SDS011;4736;52.508;13.422;2023-09-07T12:52:23;5.10;;;4.53;;
9392;SDS011;4736;52.508;13.422;2023-09-07T12:55:28;4.53;;;4.32;;
9392;SDS011;4736;52.508;13.422;2023-09-07T12:58:32;4.65;;;4.32;;
9392;SDS011;4736;52.508;13.422;2023-09-07T13:01:35;5.18;;;4.72;;
9392;SDS011;4736;52.508;13.422;2023-09-07T13:04:38;6.22;;;5.63;;
9392;SDS011;4736;52.508;13.422;2023-09-07T13:07:41;6.70;;;5.10;;
9392;SDS011;4736;52.508;13.422;2023-09-07T13:10:46;5.18;;;4.88;;
9392;SDS011;4736;52.508;13.422;2023-09-07T13:13:50;5.38;;;5.03;;
9392;SDS011;4736;52.508;13.422;2023-09-07T13:16:54;4.95;;;4.68;;
9392;SDS011;4736;52.508;13.422;2023-09-07T13:19:57;5.30;;;5.03;;
9392;SDS011;4736;52.508;13.422;2023-09-07T13:23:00;6.13;;;5.78;;
9392;SDS011;4736;52.508;13.422;2023-09-07T13:26:04;5.93;;;5.40;;
9392;SDS011;4736;52.508;13.422;2023-09-07T13:29:08;16.25;;;5.97;;
9392;SDS011;4736;52.508;13.422;2023-09-07T13:32:11;6.00;;;5.50;;
9392;SDS011;4736;52.508;13.422;2023-09-07T13:35:14;5.63;;;5.22;;
9392;SDS011;4736;52.508;13.422;2023-09-07T13:38:17;7.28;;;5.03;;
9392;SDS011;4736;52.508;13.422;2023-09-07T13:41:22;8.73;;;4.35;;
9392;SDS011;4736;52.508;13.422;2023-09-07T13:44:25;5.53;;;5.22;;
9392;SDS011;4736;52.508;13.422;2023-09-07T13:47:28;5.40;;;5.03;;
9392;SDS011;4736;52.508;13.422;2023-09-07T13:50:31;5.68;;;5.18;;
9392;SDS011;4736;52.508;13.422;2023-09-07T13:53:36;5.20;;;4.90;;
9392;SDS011;4736;52.508;13.422;2023-09-07T13:56:41;5.07;;;4.57;;
9392;SDS011;4736;52.508;13.422;2023-09-07T13:59:46;5.93;;;5.43;;
9392;SDS011;4736;52.508;13.422;2023-09-07T14:02:49;7.15;;;5.47;;
9392;SDS011;4736;52.508;13.422;2023-09-07T14:05:54;5.60;;;5.18;;
9392;SDS011;4736;52.508;13.422;2023-09-07T14:08:57;5.32;;;4.93;;
9392;SDS011;4736;52.508;13.422;2023-09-07T14:12:02;4.68;;;4.47;;
9392;SDS011;4736;52.508;13.422;2023-09-07T14:15:06;5.05;;;4.72;;
9392;SDS011;4736;52.508;13.422;2023-09-07T14:18:09;5.15;;;4.75;;
9392;SDS011;4736;52.508;13.422;2023-09-07T14:21:13;5.18;;;4.75;;
9392;SDS011;4736;52.508;13.422;2023-09-07T14:24:17;6.00;;;5.47;;
9392;SDS011;4736;52.508;13.422;2023-09-07T14:27:21;7.03;;;5.97;;
9392;SDS011;4736;52.508;13.422;2023-09-07T14:30:25;5.15;;;4.95;;
9392;SDS011;4736;52.508;13.422;2023-09-07T14:33:28;5.53;;;5.22;;
9392;SDS011;4736;52.508;13.422;2023-09-07T14:36:32;6.28;;;5.97;;
9392;SDS011;4736;52.508;13.422;2023-09-07T14:39:35;5.57;;;5.20;;
9392;SDS011;4736;52.508;13.422;2023-09-07T14:42:39;6.13;;;5.57;;
9392;SDS011;4736;52.508;13.422;2023-09-07T14:45:44;5.70;;;5.40;;
9392;SDS011;4736;52.508;13.422;2023-09-07T14:48:47;6.57;;;5.95;;
9392;SDS011;4736;52.508;13.422;2023-09-07T14:51:50;7.55;;;6.03;;
9392;SDS011;4736;52.508;13.422;2023-09-07T14:54:53;6.07;;;5.70;;
9392;SDS011;4736;52.508;13.422;2023-09-07T14:57:58;6.47;;;5.90;;
9392;SDS011;4736;52.508;13.422;2023-09-07T15:01:01;6.82;;;5.88;;
9392;SDS011;4736;52.508;13.422;2023-09-07T15:04:05;5.70;;;5.38;;
9392;SDS011;4736;52.508;13.422;2023-09-07T15:07:08;6.03;;;5.72;;
9392;SDS011;4736;52.508;13.422;2023-09-07T15:10:11;6.60;;;5.97;;
9392;SDS011;4736;52.508;13.422;2023-09-07T15:13:15;10.80;;;5.03;;
9392;SDS011;4736;52.508;13.422;2023-09-07T15:16:18;6.57;;;5.93;;
9392;SDS011;4736;52.508;13.422;2023-09-07T15:19:22;5.47;;;5.18;;
9392;SDS011;4736;52.508;13.422;2023-09-07T15:22:25;6.53;;;6.05;;
9392;SDS011;4736;52.508;13.422;2023-09-07T15:25:28;6.38;;;5.93;;
9392;SDS011;4736;52.508;13.422;2023-09-07T15:28:33;5.82;;;5.53;;
9392;SDS011;4736;52.508;13.422;2023-09-07T15:31:39;6.05;;;5.68;;
9392;SDS011;4736;52.508;13.422;2023-09-07T15:34:43;6.03;;;5.70;;
9392;SDS011;4736;52.508;13.422;2023-09-07T15:37:46;6.90;;;6.45;;
9392;SDS011;4736;52.508;13.422;2023-09-07T15:40:49;6.72;;;6.43;;
9392;SDS011;4736;52.508;13.422;2023-09-07T15:43:54;7.13;;;6.67;;
9392;SDS011;4736;52.508;13.422;2023-09-07T15:46:57;7.05;;;6.60;;
9392;SDS011;4736;52.508;13.422;2023-09-07T15:50:00;6.37;;;5.90;;
9392;SDS011;4736;52.508;13.422;2023-09-07T15:53:04;6.33;;;5.93;;
9392;SDS011;4736;52.508;13.422;2023-09-07T15:56:09;6.23;;;5.63;;
9392;SDS011;4736;52.508;13.422;2023-09-07T15:59:13;7.43;;;6.93;;
9392;SDS011;4736;52.508;13.422;2023-09-07T16:02:17;6.50;;;6.03;;
9392;SDS011;4736;52.508;13.422;2023-09-07T16:05:20;6.53;;;6.13;;
9392;SDS011;4736;52.508;13.422;2023-09-07T16:08:26;8.07;;;6.60;;
9392;SDS011;4736;52.508;13.422;2023-09-07T16:11:30;6.00;;;5.50;;
9392;SDS011;4736;52.508;13.422;2023-09-07T16:14:34;6.43;;;6.03;;
9392;SDS011;4736;52.508;13.422;2023-09-07T16:17:38;6.30;;;5.80;;
9392;SDS011;4736;52.508;13.422;2023-09-07T16:20:41;6.37;;;5.97;;
9392;SDS011;4736;52.508;13.422;2023-09-07T16:23:45;6.80;;;6.20;;
9392;SDS011;4736;52.508;13.422;2023-09-07T16:26:48;6.87;;;5.87;;
9392;SDS011;4736;52.508;13.422;2023-09-07T16:29:56;7.23;;;6.57;;
9392;SDS011;4736;52.508;13.422;2023-09-07T16:32:59;6.43;;;5.93;;
9392;SDS011;4736;52.508;13.422;2023-09-07T16:36:02;6.70;;;6.30;;
9392;SDS011;4736;52.508;13.422;2023-09-07T16:39:06;6.80;;;6.20;;
9392;SDS011;4736;52.508;13.422;2023-09-07T16:42:10;6.90;;;6.40;;
9392;SDS011;4736;52.508;13.422;2023-09-07T16:45:15;6.37;;;6.07;;
9392;SDS011;4736;52.508;13.422;2023-09-07T16:48:19;6.87;;;6.47;;
9392;SDS011;4736;52.508;13.422;2023-09-07T16:51:22;6.83;;;6.40;;
9392;SDS011;4736;52.508;13.422;2023-09-07T16:54:35;6.70;;;6.20;;
9392;SDS011;4736;52.508;13.422;2023-09-07T16:57:38;6.40;;;6.00;;
9392;SDS011;4736;52.508;13.422;2023-09-07T17:00:42;6.93;;;6.53;;
9392;SDS011;4736;52.508;13.422;2023-09-07T17:03:45;6.70;;;6.10;;
9392;SDS011;4736;52.508;13.422;2023-09-07T17:06:48;6.90;;;6.40;;
9392;SDS011;4736;52.508;13.422;2023-09-07T17:10:06;7.63;;;7.03;;
9392;SDS011;4736;52.508;13.422;2023-09-07T17:13:09;6.57;;;5.97;;
9392;SDS011;4736;52.508;13.422;2023-09-07T17:16:14;7.10;;;6.67;;
9392;SDS011;4736;52.508;13.422;2023-09-07T17:19:17;7.50;;;6.93;;
9392;SDS011;4736;52.508;13.422;2023-09-07T17:22:20;7.33;;;6.83;;
9392;SDS011;4736;52.508;13.422;2023-09-07T17:25:23;8.70;;;6.60;;
9392;SDS011;4736;52.508;13.422;2023-09-07T17:28:26;6.87;;;6.37;;
9392;SDS011;4736;52.508;13.422;2023-09-07T17:31:31;8.13;;;7.63;;
9392;SDS011;4736;52.508;13.422;2023-09-07T17:34:34;7.93;;;7.43;;
9392;SDS011;4736;52.508;13.422;2023-09-07T17:37:37;6.80;;;6.40;;
9392;SDS011;4736;52.508;13.422;2023-09-07T17:40:42;7.80;;;7.10;;
9392;SDS011;4736;52.508;13.422;2023-09-07T17:43:45;6.70;;;6.30;;
9392;SDS011;4736;52.508;13.422;2023-09-07T17:46:52;6.70;;;6.40;;
9392;SDS011;4736;52.508;13.422;2023-09-07T17:49:55;7.17;;;6.77;;
9392;SDS011;4736;52.508;13.422;2023-09-07T17:52:58;6.30;;;6.00;;
9392;SDS011;4736;52.508;13.422;2023-09-07T17:56:05;6.57;;;6.17;;
9392;SDS011;4736;52.508;13.422;2023-09-07T17:59:08;7.03;;;6.60;;
9392;SDS011;4736;52.508;13.422;2023-09-07T18:02:19;6.93;;;6.43;;
9392;SDS011;4736;52.508;13.422;2023-09-07T18:05:25;6.57;;;6.27;;
9392;SDS011;4736;52.508;13.422;2023-09-07T18:08:30;6.83;;;6.43;;
9392;SDS011;4736;52.508;13.422;2023-09-07T18:11:33;6.87;;;6.47;;
9392;SDS011;4736;52.508;13.422;2023-09-07T18:14:36;7.20;;;6.73;;
9392;SDS011;4736;52.508;13.422;2023-09-07T18:17:41;7.70;;;7.10;;
9392;SDS011;4736;52.508;13.422;2023-09-07T18:20:44;10.07;;;9.17;;
9392;SDS011;4736;52.508;13.422;2023-09-07T18:23:47;8.67;;;8.07;;
9392;SDS011;4736;52.508;13.422;2023-09-07T18:26:50;7.80;;;7.30;;
9392;SDS011;4736;52.508;13.422;2023-09-07T18:29:54;7.67;;;7.17;;
9392;SDS011;4736;52.508;13.422;2023-09-07T18:32:59;6.70;;;6.37;;
9392;SDS011;4736;52.508;13.422;2023-09-07T18:36:04;7.80;;;7.20;;
9392;SDS011;4736;52.508;13.422;2023-09-07T18:39:08;8.07;;;7.07;;
9392;SDS011;4736;52.508;13.422;2023-09-07T18:42:11;7.20;;;6.60;;
9392;SDS011;4736;52.508;13.422;2023-09-07T18:45:14;7.77;;;7.10;;
9392;SDS011;4736;52.508;13.422;2023-09-07T18:48:19;7.13;;;6.63;;